This is the latest recevied weather packets stored in our database for station/object DL7KAW-10. If no packets are shown the sender has not sent any weather packets the latest 10 day(s).
| Time | Temp. | Humidity | Pressure | Rain* | Wind** | Luminosity | Snow |
|---|---|---|---|---|---|---|---|
| 1788605547 | 20° C | 69% | 1013.5 hPa | - | - | - | - |
| 1788604647 | 20° C | 70% | 1013.7 hPa | - | - | - | - |
| 1788603747 | 20° C | 69% | 1013.7 hPa | - | - | - | - |
| 1788602847 | 20° C | 69% | 1013.8 hPa | - | - | - | - |
| 1788601947 | 20° C | 69% | 1013.8 hPa | - | - | - | - |
| 1788601047 | 20.56° C | 68% | 1013.7 hPa | - | - | - | - |
| 1788600146 | 20.56° C | 68% | 1013.8 hPa | - | - | - | - |
| 1788599246 | 20.56° C | 67% | 1013.5 hPa | - | - | - | - |
| 1788598346 | 21.11° C | 66% | 1013.5 hPa | - | - | - | - |
| 1788597446 | 21.67° C | 64% | 1013.3 hPa | - | - | - | - |
| 1788596546 | 21.67° C | 60% | 1013.2 hPa | - | - | - | - |
| 1788595646 | 21.11° C | 67% | 1013.1 hPa | - | - | - | - |
| 1788594746 | 20.56° C | 69% | 1013 hPa | - | - | - | - |
| 1788593846 | 20° C | 70% | 1012.8 hPa | - | - | - | - |
| 1788592945 | 20° C | 70% | 1012.7 hPa | - | - | - | - |
| 1788592045 | 20° C | 71% | 1012.5 hPa | - | - | - | - |
| 1788591145 | 20° C | 72% | 1012.4 hPa | - | - | - | - |
| 1788590245 | 19.44° C | 72% | 1012.5 hPa | - | - | - | - |
| 1788589345 | 19.44° C | 73% | 1012.3 hPa | - | - | - | - |
| 1788588445 | 19.44° C | 73% | 1012.2 hPa | - | - | - | - |
| 1788587545 | 19.44° C | 74% | 1012.1 hPa | - | - | - | - |
| 1788586645 | 19.44° C | 75% | 1012.1 hPa | - | - | - | - |
| 1788585744 | 19.44° C | 75% | 1011.9 hPa | - | - | - | - |
| 1788584844 | 19.44° C | 76% | 1011.9 hPa | - | - | - | - |
| 1788583944 | 19.44° C | 75% | 1011.7 hPa | - | - | - | - |
* Rain since midnight (hover to see other rain measurements)
** Current wind speed in m/s (hover to see current wind gust speed)